createdAt,value
2023-05-18T00:02:08.592Z,21.24
2023-05-18T00:04:39.030Z,21.47
2023-05-18T00:07:11.840Z,21.26
2023-05-18T00:09:43.015Z,21.40
2023-05-18T00:12:12.770Z,22.05
2023-05-18T00:14:42.471Z,22.46
2023-05-18T00:17:12.126Z,22.68
2023-05-18T00:19:42.276Z,22.73
2023-05-18T00:22:12.190Z,22.97
2023-05-18T00:24:41.916Z,22.99
2023-05-18T00:27:11.642Z,22.98
2023-05-18T00:29:41.370Z,23.31
2023-05-18T00:32:13.844Z,23.24
2023-05-18T00:34:43.499Z,23.01
2023-05-18T00:37:13.296Z,22.72
2023-05-18T00:39:45.770Z,22.25
2023-05-18T00:42:15.615Z,21.97
2023-05-18T00:44:45.387Z,21.92
2023-05-18T00:47:20.182Z,21.86
2023-05-18T00:49:49.917Z,21.81
2023-05-18T00:52:19.637Z,21.77
2023-05-18T00:54:49.543Z,21.81
2023-05-18T00:57:20.983Z,21.69
2023-05-18T01:00:02.659Z,21.72
2023-05-18T01:02:33.399Z,21.71
2023-05-18T01:05:05.057Z,21.67
2023-05-18T01:07:35.051Z,21.74
2023-05-18T01:10:05.073Z,21.72
2023-05-18T01:13:05.502Z,21.63
2023-05-18T01:15:42.514Z,21.65
2023-05-18T01:18:38.475Z,21.61
2023-05-18T01:21:15.144Z,21.58
2023-05-18T01:24:11.254Z,21.57
2023-05-18T01:26:46.762Z,21.51
2023-05-18T01:29:19.522Z,21.49
2023-05-18T01:31:49.239Z,21.52
2023-05-18T01:34:18.947Z,21.55
2023-05-18T01:36:51.346Z,21.51
2023-05-18T01:39:21.394Z,21.48
2023-05-18T01:42:21.765Z,21.49
2023-05-18T01:45:10.338Z,21.49
2023-05-18T01:47:40.961Z,21.48
2023-05-18T01:50:19.498Z,21.56
2023-05-18T01:53:29.354Z,21.49
2023-05-18T01:56:00.129Z,21.56
2023-05-18T01:58:30.326Z,21.53
2023-05-18T02:01:00.470Z,21.46
2023-05-18T02:03:30.452Z,21.48
2023-05-18T02:06:00.351Z,21.51
2023-05-18T02:08:30.243Z,21.51
2023-05-18T02:10:59.997Z,21.55
2023-05-18T02:13:29.715Z,21.53
2023-05-18T02:15:59.395Z,21.57
2023-05-18T02:18:29.560Z,21.63
2023-05-18T02:21:03.104Z,21.60
2023-05-18T02:23:33.404Z,22.09
2023-05-18T02:26:03.726Z,21.86
2023-05-18T02:28:33.702Z,22.07
2023-05-18T02:31:11.160Z,21.94
2023-05-18T02:33:44.061Z,21.93
2023-05-18T02:36:30.494Z,21.99
2023-05-18T02:39:03.141Z,21.95
2023-05-18T02:41:33.030Z,22.04
2023-05-18T02:44:04.572Z,22.06
2023-05-18T02:46:34.811Z,22.14
2023-05-18T02:49:04.543Z,22.12
2023-05-18T02:52:38.277Z,22.10
2023-05-18T02:55:08.740Z,22.17
2023-05-18T02:57:41.198Z,22.06
2023-05-18T03:00:14.572Z,21.95
2023-05-18T03:02:49.069Z,22.02
2023-05-18T03:05:19.901Z,22.08
2023-05-18T03:07:54.752Z,22.05
2023-05-18T03:10:24.656Z,22.11
2023-05-18T03:12:54.314Z,22.23
2023-05-18T03:15:24.012Z,22.35
2023-05-18T03:17:53.787Z,22.33
2023-05-18T03:20:24.364Z,22.49
2023-05-18T03:22:54.236Z,22.39
2023-05-18T03:25:24.223Z,22.63
2023-05-18T03:27:54.773Z,22.48
2023-05-18T03:30:24.475Z,22.54
2023-05-18T03:32:54.721Z,22.57
2023-05-18T03:35:24.640Z,22.58
2023-05-18T03:37:54.430Z,22.50
2023-05-18T03:40:28.892Z,22.62
2023-05-18T03:42:58.511Z,22.59
2023-05-18T03:45:28.598Z,22.58
2023-05-18T03:48:00.784Z,22.58
2023-05-18T03:50:30.956Z,22.53
2023-05-18T03:53:00.923Z,22.59
2023-05-18T03:55:31.776Z,22.55
2023-05-18T03:58:45.762Z,22.62
2023-05-18T04:01:13.666Z,21.25
2023-05-18T04:03:54.210Z,20.99
2023-05-18T04:07:15.554Z,20.89
2023-05-18T04:09:54.499Z,20.82
2023-05-18T04:12:38.563Z,20.86
2023-05-18T04:19:00.933Z,20.77
2023-05-18T04:21:39.006Z,20.62
2023-05-18T04:27:31.628Z,20.59
2023-05-18T04:30:07.558Z,20.68
2023-05-18T04:33:20.934Z,20.55
2023-05-18T04:36:58.008Z,20.58
2023-05-18T04:42:50.062Z,20.71
2023-05-18T04:45:53.539Z,20.58
2023-05-18T04:48:31.503Z,20.54
2023-05-18T04:51:26.824Z,20.47
2023-05-18T04:57:18.477Z,20.39
2023-05-18T04:59:49.082Z,20.57
2023-05-18T05:02:59.545Z,20.56
2023-05-18T05:05:48.822Z,20.36
2023-05-18T05:08:24.372Z,20.29
2023-05-18T05:11:22.840Z,20.23
2023-05-18T05:20:07.290Z,19.99
2023-05-18T05:22:55.926Z,20.04
2023-05-18T05:25:36.253Z,19.95
2023-05-18T05:35:42.729Z,19.80
2023-05-18T05:37:57.321Z,19.84
2023-05-18T05:43:38.755Z,19.78
2023-05-18T05:46:32.643Z,19.67
2023-05-18T05:49:36.497Z,19.69
2023-05-18T05:52:28.366Z,19.66
2023-05-18T05:55:19.931Z,19.71
2023-05-18T06:14:42.345Z,21.17
2023-05-18T06:16:33.241Z,21.22
2023-05-18T06:22:06.685Z,21.33
2023-05-18T06:24:50.459Z,21.32
2023-05-18T06:27:37.601Z,21.39
2023-05-18T06:30:39.057Z,21.40
2023-05-18T06:33:42.974Z,21.50
2023-05-18T06:39:59.482Z,21.45
2023-05-18T06:42:39.961Z,21.54
2023-05-18T06:45:22.888Z,21.48
2023-05-18T06:47:52.943Z,21.54
2023-05-18T06:50:25.700Z,21.55
2023-05-18T06:53:16.297Z,21.60
2023-05-18T06:56:22.241Z,21.97
2023-05-18T06:58:51.630Z,22.23
2023-05-18T07:03:54.708Z,22.47
2023-05-18T07:06:28.792Z,22.45
2023-05-18T07:09:12.284Z,22.52
2023-05-18T07:11:48.928Z,22.49
2023-05-18T07:14:21.979Z,22.60
2023-05-18T07:16:53.201Z,22.58
2023-05-18T07:19:23.402Z,22.67
2023-05-18T07:22:03.712Z,22.64
2023-05-18T07:24:33.591Z,22.71
2023-05-18T07:27:11.991Z,22.71
2023-05-18T07:29:41.709Z,22.70
2023-05-18T07:32:11.385Z,22.75
2023-05-18T07:34:40.999Z,22.78
2023-05-18T07:37:10.658Z,22.82
2023-05-18T07:39:46.012Z,22.83
2023-05-18T07:42:15.705Z,22.77
2023-05-18T07:44:48.081Z,22.81
2023-05-18T07:47:17.852Z,22.78
2023-05-18T07:49:47.733Z,22.82
2023-05-18T07:52:17.400Z,22.78
2023-05-18T07:54:47.084Z,22.76
2023-05-18T07:57:16.840Z,22.71
2023-05-18T07:59:46.667Z,22.76
2023-05-18T08:02:18.147Z,22.72
2023-05-18T08:04:48.528Z,22.68
2023-05-18T08:07:19.997Z,22.68
2023-05-18T08:09:49.709Z,22.67
2023-05-18T08:12:19.425Z,22.67
2023-05-18T08:14:49.869Z,22.56
2023-05-18T08:17:21.188Z,22.61
2023-05-18T08:19:51.133Z,22.77
2023-05-18T08:22:26.689Z,22.75
2023-05-18T08:25:00.154Z,22.82
2023-05-18T08:27:36.717Z,22.83
2023-05-18T08:30:06.581Z,22.82
2023-05-18T08:32:38.821Z,22.82
2023-05-18T08:35:09.929Z,22.84
2023-05-18T08:37:42.618Z,22.82
2023-05-18T08:40:14.408Z,22.86
2023-05-18T08:43:15.476Z,22.86
2023-05-18T08:45:55.976Z,22.87
2023-05-18T08:48:29.855Z,22.89
2023-05-18T08:51:04.407Z,22.88
2023-05-18T08:53:35.495Z,22.87
2023-05-18T08:56:05.521Z,22.87
2023-05-18T08:58:46.247Z,22.91
2023-05-18T09:01:16.715Z,22.95
2023-05-18T09:03:52.168Z,22.96
2023-05-18T09:06:24.057Z,22.93
2023-05-18T09:09:01.236Z,22.94
2023-05-18T09:11:31.164Z,22.91
2023-05-18T09:14:07.086Z,22.91
2023-05-18T09:16:37.203Z,22.92
2023-05-18T09:19:09.946Z,22.89
2023-05-18T09:21:39.762Z,22.81
2023-05-18T09:24:09.642Z,22.83
2023-05-18T09:26:40.406Z,22.83
2023-05-18T09:29:20.474Z,22.84
2023-05-18T09:31:50.754Z,22.82
2023-05-18T09:34:21.390Z,22.75
2023-05-18T09:36:54.452Z,22.78
2023-05-18T09:39:27.285Z,22.81
2023-05-18T09:42:00.418Z,22.79
2023-05-18T09:44:47.768Z,22.80
2023-05-18T09:47:20.372Z,22.78
2023-05-18T09:49:52.707Z,22.78
2023-05-18T09:52:22.581Z,22.76
2023-05-18T09:55:06.183Z,22.79
2023-05-18T09:57:48.548Z,22.76
2023-05-18T10:00:23.555Z,22.81
2023-05-18T10:02:54.773Z,22.75
2023-05-18T10:05:32.571Z,22.77
2023-05-18T10:08:06.591Z,22.69
2023-05-18T10:10:46.136Z,22.71
2023-05-18T10:13:21.585Z,22.74
2023-05-18T10:15:55.715Z,22.73
2023-05-18T10:18:33.346Z,22.72
2023-05-18T10:21:04.792Z,22.72
2023-05-18T10:23:38.763Z,22.74
2023-05-18T10:26:11.796Z,22.76
2023-05-18T10:28:45.606Z,22.76
2023-05-18T10:31:16.494Z,22.73
2023-05-18T10:33:49.611Z,22.70
2023-05-18T10:36:20.334Z,22.67
2023-05-18T10:38:50.172Z,22.66
2023-05-18T10:41:21.357Z,22.66
2023-05-18T10:43:51.462Z,22.64
2023-05-18T10:46:25.903Z,22.63
2023-05-18T10:48:57.689Z,22.64
2023-05-18T10:51:28.758Z,22.61
2023-05-18T10:54:03.405Z,22.58
2023-05-18T10:56:33.208Z,22.57
2023-05-18T10:59:03.103Z,22.61
2023-05-18T11:01:35.602Z,22.59
2023-05-18T11:04:07.015Z,22.58
2023-05-18T11:06:40.798Z,22.58
2023-05-18T11:09:10.538Z,22.60
2023-05-18T11:11:57.581Z,22.51
2023-05-18T11:14:32.193Z,22.54
2023-05-18T11:17:24.430Z,22.56
2023-05-18T11:20:09.800Z,22.57
2023-05-18T11:22:49.081Z,22.53
2023-05-18T11:25:31.043Z,22.53
2023-05-18T11:28:14.978Z,22.53
2023-05-18T11:30:46.235Z,22.52
2023-05-18T11:33:23.784Z,22.46
2023-05-18T11:36:15.168Z,22.47
2023-05-18T11:38:50.573Z,22.48
2023-05-18T11:41:48.547Z,22.45
2023-05-18T11:44:28.293Z,22.47
2023-05-18T11:47:10.564Z,22.42
2023-05-18T11:52:27.539Z,22.44
2023-05-18T11:55:00.806Z,22.43
2023-05-18T11:57:36.384Z,22.43
2023-05-18T12:00:11.445Z,22.44
2023-05-18T12:02:41.818Z,22.35
2023-05-18T12:05:12.663Z,22.37
2023-05-18T12:07:46.346Z,22.38
2023-05-18T12:10:17.793Z,22.37
2023-05-18T12:12:51.661Z,22.39
2023-05-18T12:15:24.907Z,22.37
2023-05-18T12:17:54.983Z,22.39
2023-05-18T12:20:37.075Z,22.34
2023-05-18T12:23:06.758Z,22.35
2023-05-18T12:25:36.631Z,22.36
2023-05-18T12:28:06.817Z,22.38
2023-05-18T12:30:37.149Z,22.33
2023-05-18T12:33:08.471Z,22.32
2023-05-18T12:35:41.832Z,22.37
2023-05-18T12:38:11.833Z,22.30
2023-05-18T12:40:50.175Z,22.31
2023-05-18T12:43:19.973Z,22.31
2023-05-18T12:45:49.636Z,22.31
2023-05-18T12:48:19.316Z,22.33
2023-05-18T12:50:50.303Z,22.29
2023-05-18T12:53:21.398Z,22.31
2023-05-18T12:56:13.089Z,22.32
2023-05-18T12:58:43.157Z,22.32
2023-05-18T13:01:14.061Z,22.31
2023-05-18T13:03:44.153Z,22.33
2023-05-18T13:06:14.013Z,22.29
2023-05-18T13:08:43.701Z,22.25
2023-05-18T13:11:14.957Z,22.23
2023-05-18T13:14:05.150Z,22.26
2023-05-18T13:16:41.779Z,22.24
2023-05-18T13:19:12.894Z,22.26
2023-05-18T13:21:45.626Z,22.24
2023-05-18T13:24:18.967Z,22.27
2023-05-18T13:26:48.721Z,22.26
2023-05-18T13:29:21.522Z,22.28
2023-05-18T13:31:51.239Z,22.20
2023-05-18T13:34:21.317Z,22.22
2023-05-18T13:36:50.965Z,22.20
2023-05-18T13:39:20.647Z,22.17
2023-05-18T13:41:50.306Z,22.18
2023-05-18T13:44:20.320Z,22.15
2023-05-18T13:46:50.038Z,22.14
2023-05-18T13:49:19.762Z,22.16
2023-05-18T13:51:49.705Z,22.12
2023-05-18T13:54:19.439Z,22.14
2023-05-18T13:56:50.164Z,22.14
2023-05-18T13:59:23.862Z,22.10
2023-05-18T14:01:56.213Z,22.07
2023-05-18T14:04:25.906Z,22.08
2023-05-18T14:06:57.491Z,22.06
2023-05-18T14:09:33.962Z,22.05
2023-05-18T14:12:09.628Z,22.01
2023-05-18T14:14:42.793Z,22.06
2023-05-18T14:17:19.339Z,22.06
2023-05-18T14:19:51.149Z,22.04
2023-05-18T14:22:21.045Z,22.06
2023-05-18T14:24:51.363Z,22.03
2023-05-18T14:27:27.226Z,22.03
2023-05-18T14:29:57.624Z,22.02
2023-05-18T14:32:27.481Z,22.04
2023-05-18T14:34:59.419Z,21.99
2023-05-18T14:37:29.091Z,21.99
2023-05-18T14:39:58.840Z,21.99
2023-05-18T14:42:30.445Z,21.93
2023-05-18T14:45:00.542Z,21.92
2023-05-18T14:47:30.304Z,21.95
2023-05-18T14:50:00.668Z,21.94
2023-05-18T14:52:30.793Z,21.95
2023-05-18T14:55:03.872Z,21.91
2023-05-18T14:57:33.838Z,21.87
2023-05-18T15:00:06.385Z,21.92
2023-05-18T15:02:36.209Z,21.93
2023-05-18T15:05:06.730Z,21.90
2023-05-18T15:07:36.576Z,21.87
2023-05-18T15:10:06.674Z,21.88
2023-05-18T15:12:39.217Z,21.86
2023-05-18T15:15:09.595Z,21.88
2023-05-18T15:17:47.230Z,21.90
2023-05-18T15:20:17.130Z,21.85
2023-05-18T15:22:47.128Z,21.89
2023-05-18T15:25:20.532Z,21.82
2023-05-18T15:27:55.161Z,21.79
2023-05-18T15:30:25.034Z,21.78
2023-05-18T15:32:54.895Z,21.74
2023-05-18T15:35:28.157Z,21.77
2023-05-18T15:37:58.313Z,21.79
2023-05-18T15:40:28.159Z,21.80
2023-05-18T15:42:58.112Z,21.78
2023-05-18T15:45:28.438Z,21.76
2023-05-18T15:48:01.306Z,21.77
2023-05-18T15:50:31.228Z,21.79
2023-05-18T15:53:01.186Z,21.74
2023-05-18T15:55:30.862Z,21.76
2023-05-18T15:58:04.882Z,21.73
2023-05-18T16:00:34.731Z,21.77
2023-05-18T16:03:04.540Z,21.73
2023-05-18T16:05:34.273Z,21.69
2023-05-18T16:08:03.992Z,21.72
2023-05-18T16:10:34.223Z,21.70
2023-05-18T16:13:07.320Z,21.68
2023-05-18T16:15:37.710Z,21.72
2023-05-18T16:18:07.903Z,21.73
2023-05-18T16:20:37.877Z,21.73
2023-05-18T16:23:10.387Z,21.71
2023-05-18T16:25:40.058Z,21.69
2023-05-18T16:28:09.790Z,21.66
2023-05-18T16:30:39.427Z,21.66
2023-05-18T16:33:09.274Z,21.67
2023-05-18T16:35:39.005Z,21.69
2023-05-18T16:38:08.924Z,21.68
2023-05-18T16:40:39.033Z,21.62
2023-05-18T16:43:08.755Z,21.63
2023-05-18T16:45:38.489Z,21.70
2023-05-18T16:48:08.479Z,21.70
2023-05-18T16:50:39.282Z,21.72
2023-05-18T16:53:09.023Z,21.75
2023-05-18T16:55:38.784Z,21.79
2023-05-18T16:58:08.583Z,21.76
2023-05-18T17:00:38.455Z,21.71
2023-05-18T17:03:08.994Z,21.74
2023-05-18T17:05:42.246Z,21.71
2023-05-18T17:08:12.748Z,21.71
2023-05-18T17:10:42.911Z,21.71
2023-05-18T17:13:22.923Z,21.73
2023-05-18T17:15:52.631Z,21.74
2023-05-18T17:18:22.422Z,21.73
2023-05-18T17:20:52.148Z,21.71
2023-05-18T17:23:22.035Z,21.74
2023-05-18T17:26:05.894Z,21.74
2023-05-18T17:28:36.267Z,21.73
2023-05-18T17:31:11.681Z,21.72
2023-05-18T17:33:44.342Z,21.73
2023-05-18T17:36:17.344Z,21.77
2023-05-18T17:38:50.128Z,21.67
2023-05-18T17:41:25.597Z,21.68
2023-05-18T17:43:55.314Z,21.64
2023-05-18T17:46:25.125Z,21.65
2023-05-18T17:48:54.802Z,21.60
2023-05-18T17:51:26.209Z,21.63
2023-05-18T17:53:58.974Z,21.67
2023-05-18T17:56:38.690Z,21.61
2023-05-18T17:59:09.001Z,21.55
2023-05-18T18:01:42.109Z,21.57
2023-05-18T18:04:12.215Z,21.59
2023-05-18T18:06:54.098Z,21.53
2023-05-18T18:09:26.551Z,21.55
2023-05-18T18:11:59.766Z,21.58
2023-05-18T18:14:29.472Z,21.60
2023-05-18T18:17:01.997Z,21.49
2023-05-18T18:19:31.779Z,21.58
2023-05-18T18:22:01.730Z,21.57
2023-05-18T18:24:37.839Z,21.56
2023-05-18T18:27:10.664Z,21.53
2023-05-18T18:29:40.350Z,21.51
2023-05-18T18:32:10.369Z,21.52
2023-05-18T18:34:40.110Z,21.47
2023-05-18T18:37:09.856Z,21.53
2023-05-18T18:39:39.804Z,21.54
2023-05-18T18:42:09.717Z,21.47
2023-05-18T18:44:39.418Z,21.50
2023-05-18T18:47:09.197Z,21.45
2023-05-18T18:49:39.207Z,21.46
2023-05-18T18:54:39.142Z,21.50
2023-05-18T18:57:08.857Z,21.52
2023-05-18T18:59:38.556Z,21.50
2023-05-18T19:02:08.460Z,21.50
2023-05-18T19:04:38.272Z,21.52
2023-05-18T19:07:08.145Z,21.45
2023-05-18T19:09:40.520Z,21.46
2023-05-18T19:12:10.718Z,21.39
2023-05-18T19:14:40.865Z,21.49
2023-05-18T19:17:10.488Z,21.50
2023-05-18T19:19:40.119Z,21.48
2023-05-18T19:22:12.230Z,21.52
2023-05-18T19:24:42.018Z,21.54
2023-05-18T19:27:11.757Z,21.55
2023-05-18T19:29:41.440Z,21.55
2023-05-18T19:32:11.322Z,21.51
2023-05-18T19:34:41.175Z,21.45
2023-05-18T19:37:13.687Z,21.51
2023-05-18T19:39:45.962Z,21.47
2023-05-18T19:42:15.604Z,21.44
2023-05-18T19:44:47.978Z,21.48
2023-05-18T19:47:17.686Z,21.47
2023-05-18T19:49:47.841Z,21.47
2023-05-18T19:52:21.498Z,21.41
2023-05-18T19:54:52.145Z,21.44
2023-05-18T19:57:22.874Z,21.39
2023-05-18T19:59:55.461Z,21.35
2023-05-18T20:02:28.161Z,21.33
2023-05-18T20:05:04.886Z,21.28
2023-05-18T20:07:37.768Z,21.26
2023-05-18T20:10:08.297Z,21.26
2023-05-18T20:12:37.963Z,21.26
2023-05-18T20:15:09.238Z,21.25
2023-05-18T20:17:42.126Z,21.30
2023-05-18T20:20:12.010Z,21.30
2023-05-18T20:22:48.733Z,21.25
2023-05-18T20:25:18.585Z,21.25
2023-05-18T20:27:48.270Z,21.24
2023-05-18T20:30:17.956Z,21.27
2023-05-18T20:32:47.929Z,21.25
2023-05-18T20:35:18.320Z,21.30
2023-05-18T20:37:48.309Z,21.38
2023-05-18T20:40:20.739Z,21.39
2023-05-18T20:45:37.084Z,20.58
2023-05-18T20:51:23.898Z,20.57
2023-05-18T20:54:28.200Z,20.74
2023-05-18T20:56:58.839Z,20.78
2023-05-18T20:59:31.340Z,20.83
2023-05-18T21:02:01.150Z,20.90
2023-05-18T21:04:30.876Z,20.95
2023-05-18T21:07:03.447Z,21.00
2023-05-18T21:09:33.766Z,21.11
2023-05-18T21:12:04.240Z,21.14
2023-05-18T21:14:37.025Z,21.18
2023-05-18T21:17:08.152Z,21.26
2023-05-18T21:19:37.880Z,21.30
2023-05-18T21:22:07.648Z,21.33
2023-05-18T21:24:37.501Z,21.32
2023-05-18T21:27:07.706Z,21.33
2023-05-18T21:29:37.464Z,21.32
2023-05-18T21:32:10.652Z,21.40
2023-05-18T21:34:42.019Z,21.40
2023-05-18T21:37:13.426Z,21.39
2023-05-18T21:39:45.901Z,21.41
2023-05-18T21:42:15.909Z,21.46
2023-05-18T21:44:45.759Z,21.51
2023-05-18T21:47:15.432Z,21.55
2023-05-18T21:49:46.109Z,21.60
2023-05-18T21:52:20.044Z,21.67
2023-05-18T21:54:49.734Z,21.74
2023-05-18T21:57:19.561Z,21.78
2023-05-18T21:59:49.275Z,21.80
2023-05-18T22:02:18.960Z,21.83
2023-05-18T22:04:48.612Z,21.94
2023-05-18T22:07:18.266Z,21.98
2023-05-18T22:09:50.946Z,22.00
2023-05-18T22:12:21.153Z,22.03
2023-05-18T22:14:50.921Z,22.05
2023-05-18T22:17:20.980Z,22.25
2023-05-18T22:19:52.200Z,22.17
2023-05-18T22:22:30.214Z,22.21
2023-05-18T22:25:00.573Z,22.21
2023-05-18T22:27:34.133Z,22.25
2023-05-18T22:30:06.968Z,22.24
2023-05-18T22:32:37.088Z,22.33
2023-05-18T22:35:07.338Z,22.32
2023-05-18T22:37:40.497Z,22.38
2023-05-18T22:40:11.469Z,22.42
2023-05-18T22:42:41.250Z,22.46
2023-05-18T22:45:13.149Z,22.49
2023-05-18T22:47:43.002Z,22.50
2023-05-18T22:50:21.449Z,22.48
2023-05-18T22:52:51.249Z,22.48
2023-05-18T22:55:21.197Z,22.51
2023-05-18T22:57:51.053Z,22.57
2023-05-18T23:00:20.904Z,22.49
2023-05-18T23:02:50.713Z,22.59
2023-05-18T23:05:22.927Z,22.50
2023-05-18T23:07:53.802Z,22.54
2023-05-18T23:10:27.945Z,22.46
2023-05-18T23:13:09.131Z,22.51
2023-05-18T23:15:43.004Z,22.47
2023-05-18T23:18:14.002Z,22.51
2023-05-18T23:20:43.864Z,22.51
2023-05-18T23:23:13.582Z,22.55
2023-05-18T23:25:44.193Z,22.59
2023-05-18T23:28:16.770Z,22.56
2023-05-18T23:30:47.345Z,22.53
2023-05-18T23:33:17.911Z,22.54
2023-05-18T23:35:48.462Z,22.57
2023-05-18T23:38:23.485Z,22.56
2023-05-18T23:40:53.923Z,22.58
2023-05-18T23:43:26.751Z,22.62
2023-05-18T23:45:57.145Z,22.60
2023-05-18T23:48:28.974Z,22.58
2023-05-18T23:51:08.734Z,22.64
2023-05-18T23:53:38.512Z,22.68
2023-05-18T23:56:08.867Z,22.64
2023-05-18T23:58:41.270Z,22.64
